Track Слепенков Матвей

Time Latitude Longitude Accuracy (66% radius in meters) Altitude (meters) Speed (km/hour) Bearing (degrees) Battery (%) GPS flag
07:27:34 57.208965 60.116824 0 0 0 0 1 delete
07:27:31 57.208955 60.117011 0 0 0 0 1 delete
07:27:28 57.209020 60.117110 0 0 0 0 1 delete
07:27:22 57.209116 60.117152 0 0 0 0 1 delete
07:27:14 57.209196 60.117066 0 0 0 0 1 delete
07:27:06 57.209286 60.117036 0 0 0 0 1 delete
07:27:02 57.209363 60.117056 0 0 0 0 1 delete
07:26:58 57.209457 60.117088 0 0 0 0 1 delete
07:26:53 57.209572 60.117110 0 0 0 0 1 delete
07:26:49 57.209682 60.117142 0 0 0 0 1 delete
07:26:46 57.209774 60.117186 0 0 0 0 1 delete
07:26:41 57.209835 60.117288 0 0 0 0 1 delete
07:26:36 57.209907 60.117340 0 0 0 0 1 delete
07:26:32 57.209984 60.117386 0 0 0 0 1 delete
07:26:29 57.210063 60.117411 0 0 0 0 1 delete
07:26:24 57.210156 60.117435 0 0 0 0 1 delete
07:26:19 57.210239 60.117479 0 0 0 0 1 delete
07:26:14 57.210274 60.117613 0 0 0 0 1 delete
07:26:11 57.210355 60.117707 0 0 0 0 1 delete
07:26:08 57.210424 60.117830 0 0 0 0 1 delete
07:26:05 57.210499 60.117920 0 0 0 0 1 delete
07:26:02 57.210583 60.117996 0 0 0 0 1 delete
07:25:59 57.210656 60.118084 0 0 0 0 1 delete
07:25:56 57.210728 60.118210 0 0 0 0 1 delete
07:25:53 57.210807 60.118332 0 0 0 0 1 delete
07:25:50 57.210883 60.118428 0 0 0 0 1 delete
07:25:46 57.210981 60.118488 0 0 0 0 1 delete
07:25:42 57.211050 60.118539 0 0 0 0 1 delete
07:25:37 57.211114 60.118493 0 0 0 0 1 delete
07:25:31 57.211196 60.118432 0 0 0 0 1 delete
07:25:27 57.211263 60.118536 0 0 0 0 1 delete
07:25:24 57.211347 60.118631 0 0 0 0 1 delete
07:25:22 57.211393 60.118729 0 0 0 0 1 delete
07:25:19 57.211440 60.118839 0 0 0 0 1 delete
07:25:15 57.211510 60.118916 0 0 0 0 1 delete
07:25:11 57.211575 60.118969 0 0 0 0 1 delete
07:25:04 57.211639 60.118983 0 0 0 0 1 delete
07:24:58 57.211697 60.118878 0 0 0 0 1 delete
07:24:53 57.211758 60.118797 0 0 0 0 1 delete
07:24:48 57.211822 60.118727 0 0 0 0 1 delete
07:24:42 57.211864 60.118636 0 0 0 0 1 delete
07:24:36 57.211914 60.118539 0 0 0 0 1 delete
07:24:32 57.211954 60.118420 0 0 0 0 1 delete
07:24:28 57.211997 60.118301 0 0 0 0 1 delete
07:24:23 57.212065 60.118292 0 0 0 0 1 delete
07:24:19 57.212139 60.118332 0 0 0 0 1 delete
07:24:14 57.212203 60.118349 0 0 0 0 1 delete
07:24:07 57.212286 60.118379 0 0 0 0 1 delete
07:24:01 57.212369 60.118339 0 0 0 0 1 delete
07:23:57 57.212444 60.118416 0 0 0 0 1 delete